Airport ID:1G3
Update Time (UTC):24/10/2021 22:42
Wind Speed (Knots):1
Wind Direction (Magnetic):110
Temperature (°C):11
Dew Point (°C):11
Humidity (%):99
Altimeter (inHg):29.92
Density Altitude (Feet):
Visibility (Miles):5
Clouds (Hundreds of feet):***
Present Weather:BR
METAR:METAR 1G3 242240Z AUTO 00000KT 5SM BR 11/11 A2992 RMK A01

The data displayed is for advisory purposes only and is not to be used for flight planning or operations.